11°C
Woerden, The Nederlands
Taal:  Nederlands
Updated22/10/2018 18:55 
 
Station Historical Data
Daily Summary for February 14, 2018 Units:  Both    English   Metric
Next Day »
Daily Weekly Monthly Yearly Custom
  High: Low: Average:
Temperature: 42.3 °F /  5.7 °C 27.7 °F /  -2.4 °C 34.9 °F /  1.6 °C
Dew Point: 31.3 °F /  -0.4 °C 23.5 °F /  -4.7 °C 27.7 °F /  -2.4 °C
Humidity: 86% 63% 75%
Wind Speed: 26.5mph /  42.6km/h - 13.9mph /  22.4km/h
Wind Gust: 26.5mph /  42.6km/h - -
Wind- - SE
Pressure: 29.9 in /  1013.1 hPa 29.8 in /  1008.4 hPa -
Precipitation: 0 in /  0.0 mm    
Historical Graphs
 
 
Tabular Data for February 14, 2018
Time Temperature Dew Point Pressure Wind Wind Speed Wind Gust Humidity Rainfall Rate (Hourly) solar Conditions
00:04 30.7 °F /  -0.7 °C 26.1 °F /  -3.3 °C 29.8in /  1010.0hPa SE 5mph /  8.0km/h 5mph /  8.0km/h 82% 0in /  0.0mm 0.0 W/m2 CLR
00:09 30.7 °F /  -0.7 °C 25.9 °F /  -3.4 °C 29.8in /  1010.0hPa ESE 9.2mph /  14.8km/h 9.2mph /  14.8km/h 82% 0in /  0.0mm 0.0 W/m2 CLR
00:14 30.7 °F /  -0.7 °C 26.1 °F /  -3.3 °C 29.8in /  1010.0hPa SE 8.1mph /  13.0km/h 8.1mph /  13.0km/h 83% 0in /  0.0mm 0.0 W/m2 CLR
00:19 30.7 °F /  -0.7 °C 26.1 °F /  -3.3 °C 29.8in /  1010.0hPa ESE 5.8mph /  9.3km/h 5.8mph /  9.3km/h 83% 0in /  0.0mm 0.0 W/m2 CLR
00:24 30.7 °F /  -0.7 °C 26.1 °F /  -3.3 °C 29.8in /  1010.0hPa ESE 6.9mph /  11.1km/h 6.9mph /  11.1km/h 83% 0in /  0.0mm 0.0 W/m2 CLR
00:29 30.7 °F /  -0.7 °C 26.1 °F /  -3.3 °C 29.8in /  1010.0hPa SE 8.1mph /  13.0km/h 8.1mph /  13.0km/h 83% 0in /  0.0mm 0.0 W/m2 CLR
00:34 30.7 °F /  -0.7 °C 26.1 °F /  -3.3 °C 29.8in /  1010.0hPa SE 6.9mph /  11.1km/h 6.9mph /  11.1km/h 83% 0in /  0.0mm 0.0 W/m2 CLR
00:39 30.7 °F /  -0.7 °C 26.1 °F /  -3.3 °C 29.8in /  1010.0hPa SE 9.2mph /  14.8km/h 9.2mph /  14.8km/h 83% 0in /  0.0mm 0.0 W/m2 CLR
00:44 30.7 °F /  -0.7 °C 26.1 °F /  -3.3 °C 29.8in /  1010.0hPa SE 10.4mph /  16.7km/h 10.4mph /  16.7km/h 83% 0in /  0.0mm 0.0 W/m2 CLR
00:49 30.7 °F /  -0.7 °C 26.1 °F /  -3.3 °C 29.8in /  1010.4hPa SE 9.2mph /  14.8km/h 9.2mph /  14.8km/h 83% 0in /  0.0mm 0.0 W/m2 CLR
00:54 30.6 °F /  -0.8 °C 26.1 °F /  -3.3 °C 29.8in /  1010.4hPa SE 6.9mph /  11.1km/h 6.9mph /  11.1km/h 83% 0in /  0.0mm 0.0 W/m2 CLR
00:59 30.6 °F /  -0.8 °C 26.1 °F /  -3.3 °C 29.8in /  1010.4hPa ESE 9.2mph /  14.8km/h 9.2mph /  14.8km/h 83% 0in /  0.0mm 0.0 W/m2 CLR
01:04 30.4 °F /  -0.9 °C 25.9 °F /  -3.4 °C 29.8in /  1010.4hPa SE 7mph /  11.3km/h 7mph /  11.3km/h 83% 0in /  0.0mm 0.0 W/m2 CLR
01:09 30 °F /  -1.1 °C 25.9 °F /  -3.4 °C 29.8in /  1010.4hPa ESE 8.1mph /  13.0km/h 8.1mph /  13.0km/h 84% 0in /  0.0mm 0.0 W/m2 CLR
01:14 30 °F /  -1.1 °C 25.9 °F /  -3.4 °C 29.8in /  1010.4hPa ESE 6.9mph /  11.1km/h 6.9mph /  11.1km/h 84% 0in /  0.0mm 0.0 W/m2 CLR
01:19 29.8 °F /  -1.2 °C 25.7 °F /  -3.5 °C 29.8in /  1010.4hPa SE 7mph /  11.3km/h 7mph /  11.3km/h 84% 0in /  0.0mm 0.0 W/m2 CLR
01:24 29.8 °F /  -1.2 °C 25.7 °F /  -3.5 °C 29.8in /  1010.4hPa SE 8.1mph /  13.0km/h 8.1mph /  13.0km/h 84% 0in /  0.0mm 0.0 W/m2 CLR
01:29 29.8 °F /  -1.2 °C 25.7 °F /  -3.5 °C 29.8in /  1010.4hPa ESE 8.1mph /  13.0km/h 8.1mph /  13.0km/h 84% 0in /  0.0mm 0.0 W/m2 CLR
01:34 29.8 °F /  -1.2 °C 25.7 °F /  -3.5 °C 29.8in /  1010.4hPa SE 8.1mph /  13.0km/h 8.1mph /  13.0km/h 84% 0in /  0.0mm 0.0 W/m2 CLR
01:39 29.8 °F /  -1.2 °C 25.7 °F /  -3.5 °C 29.8in /  1010.4hPa SE 8.1mph /  13.0km/h 8.1mph /  13.0km/h 84% 0in /  0.0mm 0.0 W/m2 CLR
01:44 29.8 °F /  -1.2 °C 25.5 °F /  -3.6 °C 29.8in /  1010.4hPa SE 8.1mph /  13.0km/h 8.1mph /  13.0km/h 84% 0in /  0.0mm 0.0 W/m2 CLR
01:49 29.8 °F /  -1.2 °C 25.5 °F /  -3.6 °C 29.8in /  1010.4hPa SE 6.9mph /  11.1km/h 6.9mph /  11.1km/h 84% 0in /  0.0mm 0.0 W/m2 CLR
01:54 29.7 °F /  -1.3 °C 25.5 °F /  -3.6 °C 29.8in /  1010.4hPa ESE 6.9mph /  11.1km/h 6.9mph /  11.1km/h 84% 0in /  0.0mm 0.0 W/m2 CLR
01:59 29.7 °F /  -1.3 °C 25.3 °F /  -3.7 °C 29.8in /  1010.7hPa ESE 6.9mph /  11.1km/h 6.9mph /  11.1km/h 84% 0in /  0.0mm 0.0 W/m2 CLR
02:04 29.5 °F /  -1.4 °C 25.3 °F /  -3.7 °C 29.8in /  1010.4hPa ESE 6mph /  9.7km/h 6mph /  9.7km/h 85% 0in /  0.0mm 0.0 W/m2 CLR
02:09 29.1 °F /  -1.6 °C 25.3 °F /  -3.7 °C 29.8in /  1010.7hPa SE 6.9mph /  11.1km/h 6.9mph /  11.1km/h 85% 0in /  0.0mm 0.0 W/m2 CLR
02:14 29.1 °F /  -1.6 °C 25.3 °F /  -3.7 °C 29.8in /  1010.7hPa ESE 6.9mph /  11.1km/h 6.9mph /  11.1km/h 85% 0in /  0.0mm 0.0 W/m2 CLR
02:19 29.1 °F /  -1.6 °C 25.3 °F /  -3.7 °C 29.8in /  1010.7hPa SE 5.8mph /  9.3km/h 5.8mph /  9.3km/h 85% 0in /  0.0mm 0.0 W/m2 CLR
02:25 29.1 °F /  -1.6 °C 25.3 °F /  -3.7 °C 29.8in /  1010.4hPa ESE 6.9mph /  11.1km/h 6.9mph /  11.1km/h 85% 0in /  0.0mm 0.0 W/m2 CLR
02:29 29.3 °F /  -1.5 °C 25.3 °F /  -3.7 °C 29.8in /  1010.7hPa SE 8.1mph /  13.0km/h 8.1mph /  13.0km/h 85% 0in /  0.0mm 0.0 W/m2 CLR
02:34 29.3 °F /  -1.5 °C 25.3 °F /  -3.7 °C 29.8in /  1010.7hPa ESE 6.9mph /  11.1km/h 6.9mph /  11.1km/h 85% 0in /  0.0mm 0.0 W/m2 CLR
02:40 29.5 °F /  -1.4 °C 25.3 °F /  -3.7 °C 29.8in /  1010.7hPa SE 8.1mph /  13.0km/h 8.1mph /  13.0km/h 85% 0in /  0.0mm 0.0 W/m2 CLR
02:44 29.5 °F /  -1.4 °C 25.2 °F /  -3.8 °C 29.8in /  1010.7hPa ESE 8.1mph /  13.0km/h 8.1mph /  13.0km/h 84% 0in /  0.0mm 0.0 W/m2 CLR
02:49 29.3 °F /  -1.5 °C 25.2 °F /  -3.8 °C 29.8in /  1010.7hPa ESE 6.9mph /  11.1km/h 6.9mph /  11.1km/h 84% 0in /  0.0mm 0.0 W/m2 CLR
02:55 29.1 °F /  -1.6 °C 25 °F /  -3.9 °C 29.8in /  1010.7hPa SE 8.1mph /  13.0km/h 8.1mph /  13.0km/h 84% 0in /  0.0mm 0.0 W/m2 CLR
03:00 29.1 °F /  -1.6 °C 25 °F /  -3.9 °C 29.8in /  1010.7hPa SE 5mph /  8.0km/h 9mph /  14.5km/h 84% 0in /  0.0mm 0.0 W/m2 CLR
03:05 29.1 °F /  -1.6 °C 25 °F /  -3.9 °C 29.8in /  1010.7hPa ESE 6.9mph /  11.1km/h 6.9mph /  11.1km/h 84% 0in /  0.0mm 0.0 W/m2 CLR
03:10 28.9 °F /  -1.7 °C 24.8 °F /  -4.0 °C 29.8in /  1010.7hPa SE 4.6mph /  7.4km/h 4.6mph /  7.4km/h 84% 0in /  0.0mm 0.0 W/m2 CLR
03:15 28.8 °F /  -1.8 °C 24.6 °F /  -4.1 °C 29.9in /  1011.1hPa SE 6.9mph /  11.1km/h 6.9mph /  11.1km/h 84% 0in /  0.0mm 0.0 W/m2 CLR
03:20 28.8 °F /  -1.8 °C 24.4 °F /  -4.2 °C 29.9in /  1011.1hPa ESE 6mph /  9.7km/h 6mph /  9.7km/h 84% 0in /  0.0mm 0.0 W/m2 CLR
03:25 28.6 °F /  -1.9 °C 24.4 °F /  -4.2 °C 29.9in /  1011.1hPa SE 6.9mph /  11.1km/h 6.9mph /  11.1km/h 84% 0in /  0.0mm 0.0 W/m2 CLR
03:30 28.6 °F /  -1.9 °C 24.6 °F /  -4.1 °C 29.9in /  1011.1hPa SE 4.6mph /  7.4km/h 4.6mph /  7.4km/h 85% 0in /  0.0mm 0.0 W/m2 CLR
03:35 28.4 °F /  -2.0 °C 24.4 °F /  -4.2 °C 29.9in /  1011.1hPa ESE 6.9mph /  11.1km/h 6.9mph /  11.1km/h 85% 0in /  0.0mm 0.0 W/m2 CLR
03:40 28.4 °F /  -2.0 °C 24.4 °F /  -4.2 °C 29.9in /  1011.1hPa SE 8.1mph /  13.0km/h 8.1mph /  13.0km/h 85% 0in /  0.0mm 0.0 W/m2 CLR
03:45 28.4 °F /  -2.0 °C 24.4 °F /  -4.2 °C 29.9in /  1011.1hPa SE 6.9mph /  11.1km/h 6.9mph /  11.1km/h 85% 0in /  0.0mm 0.0 W/m2 CLR
03:50 28.4 °F /  -2.0 °C 24.4 °F /  -4.2 °C 29.9in /  1011.1hPa ESE 6.9mph /  11.1km/h 6.9mph /  11.1km/h 85% 0in /  0.0mm 0.0 W/m2 CLR
03:55 28.2 °F /  -2.1 °C 24.4 °F /  -4.2 °C 29.9in /  1011.1hPa ESE 6.9mph /  11.1km/h 6.9mph /  11.1km/h 85% 0in /  0.0mm 0.0 W/m2 CLR
04:00 28.2 °F /  -2.1 °C 24.4 °F /  -4.2 °C 29.9in /  1011.4hPa ESE 8.1mph /  13.0km/h 8.1mph /  13.0km/h 85% 0in /  0.0mm 0.0 W/m2 CLR
04:05 28.2 °F /  -2.1 °C 24.3 °F /  -4.3 °C 29.9in /  1011.4hPa SE 6.9mph /  11.1km/h 6.9mph /  11.1km/h 85% 0in /  0.0mm 0.0 W/m2 CLR
04:10 28 °F /  -2.2 °C 24.3 °F /  -4.3 °C 29.9in /  1011.4hPa SE 8.1mph /  13.0km/h 8.1mph /  13.0km/h 85% 0in /  0.0mm 0.0 W/m2 CLR
04:15 28 °F /  -2.2 °C 24.1 °F /  -4.4 °C 29.9in /  1011.4hPa ESE 6.9mph /  11.1km/h 6.9mph /  11.1km/h 85% 0in /  0.0mm 0.0 W/m2 CLR
04:20 28 °F /  -2.2 °C 24.1 °F /  -4.4 °C 29.9in /  1011.4hPa ESE 4.6mph /  7.4km/h 4.6mph /  7.4km/h 85% 0in /  0.0mm 0.0 W/m2 CLR
04:25 27.9 °F /  -2.3 °C 24.1 °F /  -4.4 °C 29.9in /  1011.4hPa SE 6.9mph /  11.1km/h 6.9mph /  11.1km/h 85% 0in /  0.0mm 0.0 W/m2 CLR
04:30 27.9 °F /  -2.3 °C 24.1 °F /  -4.4 °C 29.9in /  1011.4hPa ESE 8.1mph /  13.0km/h 8.1mph /  13.0km/h 85% 0in /  0.0mm 0.0 W/m2 CLR
04:35 27.9 °F /  -2.3 °C 23.9 °F /  -4.5 °C 29.9in /  1011.4hPa ESE 8.1mph /  13.0km/h 8.1mph /  13.0km/h 85% 0in /  0.0mm 0.0 W/m2 CLR
04:40 27.9 °F /  -2.3 °C 23.9 °F /  -4.5 °C 29.9in /  1011.1hPa ESE 8.1mph /  13.0km/h 8.1mph /  13.0km/h 85% 0in /  0.0mm 0.0 W/m2 CLR
04:45 27.7 °F /  -2.4 °C 23.7 °F /  -4.6 °C 29.9in /  1011.1hPa SE 8.1mph /  13.0km/h 8.1mph /  13.0km/h 85% 0in /  0.0mm 0.0 W/m2 CLR
04:50 27.7 °F /  -2.4 °C 23.7 °F /  -4.6 °C 29.9in /  1011.1hPa ESE 6.9mph /  11.1km/h 6.9mph /  11.1km/h 85% 0in /  0.0mm 0.0 W/m2 CLR
04:55 27.7 °F /  -2.4 °C 24.1 °F /  -4.4 °C 29.9in /  1011.4hPa SE 8.1mph /  13.0km/h 8.1mph /  13.0km/h 86% 0in /  0.0mm 0.0 W/m2 CLR
05:00 27.7 °F /  -2.4 °C 24.1 °F /  -4.4 °C 29.9in /  1011.4hPa SE 8.1mph /  13.0km/h 8.1mph /  13.0km/h 86% 0in /  0.0mm 0.0 W/m2 CLR
05:05 27.7 °F /  -2.4 °C 24.1 °F /  -4.4 °C 29.9in /  1011.4hPa SE 6.9mph /  11.1km/h 6.9mph /  11.1km/h 86% 0in /  0.0mm 0.0 W/m2 CLR
05:10 27.7 °F /  -2.4 °C 23.7 °F /  -4.6 °C 29.9in /  1011.4hPa SSE 8.1mph /  13.0km/h 8.1mph /  13.0km/h 85% 0in /  0.0mm 0.0 W/m2 CLR
05:15 27.7 °F /  -2.4 °C 24.1 °F /  -4.4 °C 29.9in /  1011.4hPa SE 4.6mph /  7.4km/h 4.6mph /  7.4km/h 86% 0in /  0.0mm 0.0 W/m2 CLR
05:20 27.7 °F /  -2.4 °C 23.7 °F /  -4.6 °C 29.9in /  1011.4hPa SE 6.9mph /  11.1km/h 6.9mph /  11.1km/h 85% 0in /  0.0mm 0.0 W/m2 CLR
05:25 27.9 °F /  -2.3 °C 23.9 °F /  -4.5 °C 29.9in /  1011.4hPa SE 5mph /  8.0km/h 5mph /  8.0km/h 85% 0in /  0.0mm 0.0 W/m2 CLR
05:30 27.9 °F /  -2.3 °C 23.9 °F /  -4.5 °C 29.9in /  1011.4hPa SE 9.2mph /  14.8km/h 9.2mph /  14.8km/h 85% 0in /  0.0mm 0.0 W/m2 CLR
05:35 27.9 °F /  -2.3 °C 24.1 °F /  -4.4 °C 29.9in /  1011.4hPa ESE 8.1mph /  13.0km/h 8.1mph /  13.0km/h 85% 0in /  0.0mm 0.0 W/m2 CLR
05:40 27.9 °F /  -2.3 °C 24.1 °F /  -4.4 °C 29.9in /  1011.4hPa SE 9.2mph /  14.8km/h 9.2mph /  14.8km/h 85% 0in /  0.0mm 0.0 W/m2 CLR
05:45 27.9 °F /  -2.3 °C 24.1 °F /  -4.4 °C 29.9in /  1011.4hPa SE 10.4mph /  16.7km/h 10.4mph /  16.7km/h 85% 0in /  0.0mm 0.0 W/m2 CLR
05:50 27.9 °F /  -2.3 °C 23.7 °F /  -4.6 °C 29.9in /  1011.7hPa ESE 8.1mph /  13.0km/h 8.1mph /  13.0km/h 84% 0in /  0.0mm 0.0 W/m2 CLR
05:55 27.9 °F /  -2.3 °C 23.7 °F /  -4.6 °C 29.9in /  1011.7hPa SE 8mph /  12.9km/h 8mph /  12.9km/h 84% 0in /  0.0mm 0.0 W/m2 CLR
06:00 28 °F /  -2.2 °C 23.7 °F /  -4.6 °C 29.9in /  1011.4hPa ESE 9mph /  14.5km/h 9mph /  14.5km/h 84% 0in /  0.0mm 0.0 W/m2 CLR
06:05 28 °F /  -2.2 °C 23.7 °F /  -4.6 °C 29.9in /  1011.7hPa ESE 10.4mph /  16.7km/h 10.4mph /  16.7km/h 84% 0in /  0.0mm 0.0 W/m2 CLR
06:10 28 °F /  -2.2 °C 23.7 °F /  -4.6 °C 29.9in /  1011.4hPa ESE 9.2mph /  14.8km/h 9.2mph /  14.8km/h 84% 0in /  0.0mm 0.0 W/m2 CLR
06:15 28 °F /  -2.2 °C 23.7 °F /  -4.6 °C 29.9in /  1011.4hPa SE 8.1mph /  13.0km/h 8.1mph /  13.0km/h 84% 0in /  0.0mm 0.0 W/m2 CLR
06:20 28 °F /  -2.2 °C 23.7 °F /  -4.6 °C 29.9in /  1011.7hPa SE 8.1mph /  13.0km/h 8.1mph /  13.0km/h 84% 0in /  0.0mm 0.0 W/m2 CLR
06:25 28 °F /  -2.2 °C 23.7 °F /  -4.6 °C 29.9in /  1011.7hPa ESE 7mph /  11.3km/h 7mph /  11.3km/h 84% 0in /  0.0mm 0.0 W/m2 CLR
06:30 28 °F /  -2.2 °C 23.7 °F /  -4.6 °C 29.9in /  1011.7hPa SE 9.2mph /  14.8km/h 9.2mph /  14.8km/h 84% 0in /  0.0mm 0.0 W/m2 CLR
06:35 28 °F /  -2.2 °C 23.7 °F /  -4.6 °C 29.9in /  1011.7hPa SE 7mph /  11.3km/h 7mph /  11.3km/h 84% 0in /  0.0mm 0.0 W/m2 CLR
06:40 28 °F /  -2.2 °C 23.7 °F /  -4.6 °C 29.9in /  1011.7hPa SE 8.1mph /  13.0km/h 8.1mph /  13.0km/h 84% 0in /  0.0mm 0.0 W/m2 CLR
06:45 27.9 °F /  -2.3 °C 23.7 °F /  -4.6 °C 29.9in /  1011.7hPa ESE 8mph /  12.9km/h 8mph /  12.9km/h 84% 0in /  0.0mm 0.0 W/m2 CLR
06:50 27.9 °F /  -2.3 °C 23.7 °F /  -4.6 °C 29.9in /  1011.7hPa ESE 8.1mph /  13.0km/h 8.1mph /  13.0km/h 84% 0in /  0.0mm 0.0 W/m2 CLR
06:55 27.9 °F /  -2.3 °C 23.7 °F /  -4.6 °C 29.9in /  1011.7hPa SE 10.4mph /  16.7km/h 10.4mph /  16.7km/h 84% 0in /  0.0mm 0.0 W/m2 CLR
07:00 27.9 °F /  -2.3 °C 23.7 °F /  -4.6 °C 29.9in /  1011.7hPa SE 9.2mph /  14.8km/h 9.2mph /  14.8km/h 84% 0in /  0.0mm 0.0 W/m2 CLR
07:05 27.9 °F /  -2.3 °C 23.7 °F /  -4.6 °C 29.9in /  1011.7hPa SE 8.1mph /  13.0km/h 8.1mph /  13.0km/h 84% 0in /  0.0mm 0.0 W/m2 CLR
07:10 27.9 °F /  -2.3 °C 23.5 °F /  -4.7 °C 29.9in /  1012.1hPa ESE 8.1mph /  13.0km/h 8.1mph /  13.0km/h 84% 0in /  0.0mm 0.0 W/m2 CLR
07:15 27.9 °F /  -2.3 °C 23.5 °F /  -4.7 °C 29.9in /  1012.1hPa SE 10.4mph /  16.7km/h 10.4mph /  16.7km/h 84% 0in /  0.0mm 0.0 W/m2 CLR
07:20 27.7 °F /  -2.4 °C 23.7 °F /  -4.6 °C 29.9in /  1012.1hPa ESE 9.2mph /  14.8km/h 9.2mph /  14.8km/h 85% 0in /  0.0mm 0.0 W/m2 CLR
07:25 27.7 °F /  -2.4 °C 23.7 °F /  -4.6 °C 29.9in /  1012.1hPa ESE 8mph /  12.9km/h 8mph /  12.9km/h 85% 0in /  0.0mm 0.0 W/m2 CLR
07:30 27.7 °F /  -2.4 °C 23.7 °F /  -4.6 °C 29.9in /  1012.1hPa SE 9.2mph /  14.8km/h 9.2mph /  14.8km/h 85% 0in /  0.0mm 0.0 W/m2 CLR
07:35 27.7 °F /  -2.4 °C 23.7 °F /  -4.6 °C 29.9in /  1012.4hPa SE 6.9mph /  11.1km/h 6.9mph /  11.1km/h 85% 0in /  0.0mm 0.0 W/m2 CLR
07:40 27.7 °F /  -2.4 °C 23.7 °F /  -4.6 °C 29.9in /  1012.4hPa SE 5.8mph /  9.3km/h 5.8mph /  9.3km/h 85% 0in /  0.0mm 0.0 W/m2 CLR
07:45 27.7 °F /  -2.4 °C 23.7 °F /  -4.6 °C 29.9in /  1012.4hPa SE 5.8mph /  9.3km/h 5.8mph /  9.3km/h 85% 0in /  0.0mm 0.0 W/m2 CLR
07:49 27.7 °F /  -2.4 °C 23.7 °F /  -4.6 °C 29.9in /  1012.4hPa ESE 6.9mph /  11.1km/h 6.9mph /  11.1km/h 85% 0in /  0.0mm 0.0 W/m2 CLR
07:54 27.7 °F /  -2.4 °C 23.7 °F /  -4.6 °C 29.9in /  1012.4hPa ESE 6.9mph /  11.1km/h 6.9mph /  11.1km/h 85% 0in /  0.0mm 0.0 W/m2 CLR
08:00 27.7 °F /  -2.4 °C 23.7 °F /  -4.6 °C 29.9in /  1012.4hPa SE 4.6mph /  7.4km/h 4.6mph /  7.4km/h 85% 0in /  0.0mm 5.0 W/m2 OVC
08:05 27.7 °F /  -2.4 °C 23.5 °F /  -4.7 °C 29.9in /  1012.4hPa SE 6.9mph /  11.1km/h 6.9mph /  11.1km/h 84% 0in /  0.0mm 7.0 W/m2 OVC
08:09 27.7 °F /  -2.4 °C 23.7 °F /  -4.6 °C 29.9in /  1012.8hPa SE 8mph /  12.9km/h 8mph /  12.9km/h 85% 0in /  0.0mm 9.0 W/m2 OVC
08:14 27.9 °F /  -2.3 °C 23.5 °F /  -4.7 °C 29.9in /  1012.4hPa SE 11.5mph /  18.5km/h 11.5mph /  18.5km/h 84% 0in /  0.0mm 12.0 W/m2 OVC
08:20 27.9 °F /  -2.3 °C 23.7 °F /  -4.6 °C 29.9in /  1012.8hPa SE 10.4mph /  16.7km/h 10.4mph /  16.7km/h 84% 0in /  0.0mm 14.0 W/m2 OVC
08:24 28 °F /  -2.2 °C 23.9 °F /  -4.5 °C 29.9in /  1012.8hPa SSE 9.2mph /  14.8km/h 9.2mph /  14.8km/h 84% 0in /  0.0mm 16.0 W/m2 OVC
08:29 28 °F /  -2.2 °C 23.9 °F /  -4.5 °C 29.9in /  1012.8hPa SSE 6.9mph /  11.1km/h 6.9mph /  11.1km/h 84% 0in /  0.0mm 18.0 W/m2 OVC
08:34 28.2 °F /  -2.1 °C 24.1 °F /  -4.4 °C 29.9in /  1012.8hPa SE 8.1mph /  13.0km/h 8.1mph /  13.0km/h 84% 0in /  0.0mm 19.0 W/m2 OVC
08:39 28.4 °F /  -2.0 °C 24.3 °F /  -4.3 °C 29.9in /  1012.8hPa SSE 9.2mph /  14.8km/h 9.2mph /  14.8km/h 84% 0in /  0.0mm 23.0 W/m2 OVC
08:45 28.6 °F /  -1.9 °C 24.1 °F /  -4.4 °C 29.9in /  1012.8hPa SE 9mph /  14.5km/h 9mph /  14.5km/h 83% 0in /  0.0mm 32.0 W/m2 OVC
08:50 28.8 °F /  -1.8 °C 24.3 °F /  -4.3 °C 29.9in /  1012.8hPa SE 9.2mph /  14.8km/h 9.2mph /  14.8km/h 83% 0in /  0.0mm 42.0 W/m2 OVC
08:55 28.9 °F /  -1.7 °C 24.4 °F /  -4.2 °C 29.9in /  1012.8hPa SE 9.2mph /  14.8km/h 9.2mph /  14.8km/h 83% 0in /  0.0mm 54.0 W/m2 OVC
08:59 29.3 °F /  -1.5 °C 24.4 °F /  -4.2 °C 29.9in /  1012.8hPa SSE 8.1mph /  13.0km/h 8.1mph /  13.0km/h 82% 0in /  0.0mm 67.0 W/m2 OVC
09:04 29.7 °F /  -1.3 °C 24.8 °F /  -4.0 °C 29.9in /  1012.8hPa SE 10.4mph /  16.7km/h 10.4mph /  16.7km/h 82% 0in /  0.0mm 79.0 W/m2 OVC
09:09 29.8 °F /  -1.2 °C 25 °F /  -3.9 °C 29.9in /  1012.8hPa SE 9.2mph /  14.8km/h 9.2mph /  14.8km/h 82% 0in /  0.0mm 91.0 W/m2 BKN
09:15 30 °F /  -1.1 °C 25 °F /  -3.9 °C 29.9in /  1012.8hPa SE 10.4mph /  16.7km/h 10.4mph /  16.7km/h 81% 0in /  0.0mm 102.0 W/m2 FEW
09:19 30.4 °F /  -0.9 °C 25.3 °F /  -3.7 °C 29.9in /  1012.8hPa SSE 11.5mph /  18.5km/h 11.5mph /  18.5km/h 81% 0in /  0.0mm 113.0 W/m2 CLR
09:24 30.7 °F /  -0.7 °C 25.3 °F /  -3.7 °C 29.9in /  1012.8hPa SE 11.5mph /  18.5km/h 11.5mph /  18.5km/h 80% 0in /  0.0mm 111.0 W/m2 CLR
09:29 30.9 °F /  -0.6 °C 25.2 °F /  -3.8 °C 29.9in /  1012.8hPa ESE 12.7mph /  20.4km/h 12.7mph /  20.4km/h 79% 0in /  0.0mm 114.0 W/m2 CLR
09:35 31.3 °F /  -0.4 °C 25.3 °F /  -3.7 °C 29.9in /  1013.1hPa SE 12.7mph /  20.4km/h 12.7mph /  20.4km/h 79% 0in /  0.0mm 144.0 W/m2 CLR
09:40 31.5 °F /  -0.3 °C 25.3 °F /  -3.7 °C 29.9in /  1012.8hPa SE 11.5mph /  18.5km/h 11.5mph /  18.5km/h 78% 0in /  0.0mm 163.0 W/m2 CLR
09:45 31.8 °F /  -0.1 °C 25.3 °F /  -3.7 °C 29.9in /  1012.8hPa SE 15mph /  24.1km/h 15mph /  24.1km/h 77% 0in /  0.0mm 181.0 W/m2 CLR
09:50 32.2 °F /  0.1 °C 25.3 °F /  -3.7 °C 29.9in /  1012.8hPa SE 13mph /  20.9km/h 13mph /  20.9km/h 76% 0in /  0.0mm 195.0 W/m2 CLR
09:55 32.4 °F /  0.2 °C 25.3 °F /  -3.7 °C 29.9in /  1012.8hPa SE 16mph /  25.7km/h 16mph /  25.7km/h 75% 0in /  0.0mm 211.0 W/m2 CLR
10:00 32.5 °F /  0.3 °C 25.5 °F /  -3.6 °C 29.9in /  1012.8hPa SE 10mph /  16.1km/h 20mph /  32.2km/h 75% 0in /  0.0mm 223.0 W/m2 CLR
10:05 32.7 °F /  0.4 °C 25.3 °F /  -3.7 °C 29.9in /  1012.8hPa ESE 16.1mph /  25.9km/h 16.1mph /  25.9km/h 74% 0in /  0.0mm 234.0 W/m2 CLR
10:10 33.1 °F /  0.6 °C 25.5 °F /  -3.6 °C 29.9in /  1012.8hPa SE 16.1mph /  25.9km/h 16.1mph /  25.9km/h 74% 0in /  0.0mm 250.0 W/m2 CLR
10:15 33.3 °F /  0.7 °C 25.9 °F /  -3.4 °C 29.9in /  1012.8hPa SE 15mph /  24.1km/h 15mph /  24.1km/h 74% 0in /  0.0mm 221.0 W/m2 CLR
10:20 33.4 °F /  0.8 °C 26.1 °F /  -3.3 °C 29.9in /  1012.8hPa SSE 11.5mph /  18.5km/h 11.5mph /  18.5km/h 74% 0in /  0.0mm 225.0 W/m2 CLR
10:25 33.6 °F /  0.9 °C 26.2 °F /  -3.2 °C 29.9in /  1012.8hPa SE 13.8mph /  22.2km/h 13.8mph /  22.2km/h 74% 0in /  0.0mm 269.0 W/m2 CLR
10:30 34 °F /  1.1 °C 26.6 °F /  -3.0 °C 29.9in /  1012.8hPa SE 12.7mph /  20.4km/h 12.7mph /  20.4km/h 74% 0in /  0.0mm 283.0 W/m2 CLR
10:35 34.2 °F /  1.2 °C 26.4 °F /  -3.1 °C 29.9in /  1012.8hPa SSE 16.1mph /  25.9km/h 16.1mph /  25.9km/h 73% 0in /  0.0mm 292.0 W/m2 CLR
10:40 34.3 °F /  1.3 °C 26.2 °F /  -3.2 °C 29.9in /  1012.8hPa SE 16.1mph /  25.9km/h 16.1mph /  25.9km/h 72% 0in /  0.0mm 301.0 W/m2 CLR
10:45 34.5 °F /  1.4 °C 26.2 °F /  -3.2 °C 29.9in /  1012.8hPa SE 17.3mph /  27.8km/h 17.3mph /  27.8km/h 71% 0in /  0.0mm 309.0 W/m2 CLR
10:50 34.9 °F /  1.6 °C 26.4 °F /  -3.1 °C 29.9in /  1012.8hPa SSE 15mph /  24.1km/h 15mph /  24.1km/h 71% 0in /  0.0mm 316.0 W/m2 CLR
10:55 35.2 °F /  1.8 °C 27.1 °F /  -2.7 °C 29.9in /  1012.8hPa SE 12.7mph /  20.4km/h 12.7mph /  20.4km/h 72% 0in /  0.0mm 325.0 W/m2 CLR
11:00 35.2 °F /  1.8 °C 26.4 °F /  -3.1 °C 29.9in /  1012.8hPa SE 18.4mph /  29.6km/h 18.4mph /  29.6km/h 70% 0in /  0.0mm 334.0 W/m2 CLR
11:05 35.2 °F /  1.8 °C 26.8 °F /  -2.9 °C 29.9in /  1012.8hPa SE 13.8mph /  22.2km/h 13.8mph /  22.2km/h 71% 0in /  0.0mm 341.0 W/m2 CLR
11:10 35.4 °F /  1.9 °C 27 °F /  -2.8 °C 29.9in /  1012.8hPa SE 15mph /  24.1km/h 15mph /  24.1km/h 71% 0in /  0.0mm 346.0 W/m2 CLR
11:15 35.6 °F /  2.0 °C 27.1 °F /  -2.7 °C 29.9in /  1012.8hPa SE 18.4mph /  29.6km/h 18.4mph /  29.6km/h 71% 0in /  0.0mm 355.0 W/m2 CLR
11:20 36 °F /  2.2 °C 27.1 °F /  -2.7 °C 29.9in /  1012.8hPa SE 13.8mph /  22.2km/h 13.8mph /  22.2km/h 70% 0in /  0.0mm 362.0 W/m2 CLR
11:25 36 °F /  2.2 °C 27.1 °F /  -2.7 °C 29.9in /  1012.8hPa ESE 15mph /  24.1km/h 15mph /  24.1km/h 70% 0in /  0.0mm 369.0 W/m2 CLR
11:30 36.1 °F /  2.3 °C 27.7 °F /  -2.4 °C 29.9in /  1012.8hPa SE 16.1mph /  25.9km/h 16.1mph /  25.9km/h 71% 0in /  0.0mm 374.0 W/m2 CLR
11:35 36.5 °F /  2.5 °C 27.7 °F /  -2.4 °C 29.9in /  1012.8hPa SSE 12.7mph /  20.4km/h 12.7mph /  20.4km/h 70% 0in /  0.0mm 373.0 W/m2 CLR
11:40 36.9 °F /  2.7 °C 27.9 °F /  -2.3 °C 29.9in /  1012.8hPa SE 18.4mph /  29.6km/h 18.4mph /  29.6km/h 70% 0in /  0.0mm 392.0 W/m2 CLR
11:45 37 °F /  2.8 °C 28 °F /  -2.2 °C 29.9in /  1012.4hPa SE 15mph /  24.1km/h 15mph /  24.1km/h 70% 0in /  0.0mm 394.0 W/m2 CLR
11:50 37.4 °F /  3.0 °C 28.2 °F /  -2.1 °C 29.9in /  1012.4hPa SSE 13.8mph /  22.2km/h 13.8mph /  22.2km/h 69% 0in /  0.0mm 397.0 W/m2 CLR
11:55 37.8 °F /  3.2 °C 28.8 °F /  -1.8 °C 29.9in /  1012.4hPa SE 14mph /  22.5km/h 14mph /  22.5km/h 70% 0in /  0.0mm 392.0 W/m2 CLR
12:00 37.8 °F /  3.2 °C 28.6 °F /  -1.9 °C 29.9in /  1012.1hPa SSE 20mph /  32.2km/h 20mph /  32.2km/h 69% 0in /  0.0mm 403.0 W/m2 CLR
12:05 37.9 °F /  3.3 °C 28.2 °F /  -2.1 °C 29.9in /  1012.1hPa SE 16.1mph /  25.9km/h 16.1mph /  25.9km/h 68% 0in /  0.0mm 408.0 W/m2 CLR
12:10 38.1 °F /  3.4 °C 28.6 °F /  -1.9 °C 29.9in /  1012.1hPa SE 18.4mph /  29.6km/h 18.4mph /  29.6km/h 68% 0in /  0.0mm 413.0 W/m2 CLR
12:15 38.3 °F /  3.5 °C 28.8 °F /  -1.8 °C 29.9in /  1012.4hPa SE 16.1mph /  25.9km/h 16.1mph /  25.9km/h 68% 0in /  0.0mm 413.0 W/m2 CLR
12:20 38.8 °F /  3.8 °C 28.8 °F /  -1.8 °C 29.9in /  1012.4hPa SSE 18.4mph /  29.6km/h 18.4mph /  29.6km/h 67% 0in /  0.0mm 415.0 W/m2 CLR
12:25 38.8 °F /  3.8 °C 28.8 °F /  -1.8 °C 29.9in /  1012.1hPa SE 19.6mph /  31.5km/h 19.6mph /  31.5km/h 67% 0in /  0.0mm 420.0 W/m2 CLR
12:30 38.8 °F /  3.8 °C 28.4 °F /  -2.0 °C 29.9in /  1012.1hPa SE 20.7mph /  33.3km/h 20.7mph /  33.3km/h 66% 0in /  0.0mm 420.0 W/m2 CLR
12:35 38.8 °F /  3.8 °C 28.4 °F /  -2.0 °C 29.9in /  1012.1hPa SE 20.7mph /  33.3km/h 20.7mph /  33.3km/h 66% 0in /  0.0mm 418.0 W/m2 CLR
12:40 39 °F /  3.9 °C 28.6 °F /  -1.9 °C 29.9in /  1012.1hPa SE 17.3mph /  27.8km/h 17.3mph /  27.8km/h 66% 0in /  0.0mm 404.0 W/m2 CLR
12:45 39.4 °F /  4.1 °C 29.3 °F /  -1.5 °C 29.9in /  1012.1hPa SE 19.6mph /  31.5km/h 19.6mph /  31.5km/h 67% 0in /  0.0mm 387.0 W/m2 CLR
12:50 39.6 °F /  4.2 °C 29.8 °F /  -1.2 °C 29.9in /  1012.1hPa SE 19.6mph /  31.5km/h 19.6mph /  31.5km/h 68% 0in /  0.0mm 366.0 W/m2 CLR
12:55 39.6 °F /  4.2 °C 29.5 °F /  -1.4 °C 29.9in /  1012.1hPa SSE 21.9mph /  35.2km/h 21.9mph /  35.2km/h 67% 0in /  0.0mm 315.0 W/m2 CLR
13:00 39.7 °F /  4.3 °C 28.9 °F /  -1.7 °C 29.9in /  1012.1hPa SE 17.3mph /  27.8km/h 17.3mph /  27.8km/h 65% 0in /  0.0mm 316.0 W/m2 CLR
13:05 39.6 °F /  4.2 °C 28.8 °F /  -1.8 °C 29.9in /  1011.7hPa SSE 23mph /  37.0km/h 23mph /  37.0km/h 65% 0in /  0.0mm 279.0 W/m2 CLR
13:10 39.7 °F /  4.3 °C 29.5 °F /  -1.4 °C 29.9in /  1011.7hPa SSE 23mph /  37.0km/h 23mph /  37.0km/h 66% 0in /  0.0mm 330.0 W/m2 CLR
13:15 39.7 °F /  4.3 °C 29.5 °F /  -1.4 °C 29.9in /  1011.7hPa SE 21mph /  33.8km/h 21mph /  33.8km/h 66% 0in /  0.0mm 323.0 W/m2 CLR
13:20 40.3 °F /  4.6 °C 29.5 °F /  -1.4 °C 29.9in /  1011.7hPa SSE 19.6mph /  31.5km/h 19.6mph /  31.5km/h 65% 0in /  0.0mm 309.0 W/m2 CLR
13:25 40.5 °F /  4.7 °C 29.7 °F /  -1.3 °C 29.9in /  1011.7hPa SSE 17.3mph /  27.8km/h 17.3mph /  27.8km/h 65% 0in /  0.0mm 309.0 W/m2 CLR
13:30 40.6 °F /  4.8 °C 30 °F /  -1.1 °C 29.9in /  1011.7hPa SSE 17.3mph /  27.8km/h 17.3mph /  27.8km/h 66% 0in /  0.0mm 345.0 W/m2 CLR
13:35 40.6 °F /  4.8 °C 29.8 °F /  -1.2 °C 29.9in /  1011.7hPa SE 18.4mph /  29.6km/h 18.4mph /  29.6km/h 65% 0in /  0.0mm 381.0 W/m2 CLR
13:40 40.8 °F /  4.9 °C 29.8 °F /  -1.2 °C 29.9in /  1012.1hPa SSE 17.3mph /  27.8km/h 17.3mph /  27.8km/h 65% 0in /  0.0mm 367.0 W/m2 CLR
13:45 40.8 °F /  4.9 °C 30.4 °F /  -0.9 °C 29.9in /  1012.1hPa SE 18.4mph /  29.6km/h 18.4mph /  29.6km/h 66% 0in /  0.0mm 394.0 W/m2 CLR
13:50 41.2 °F /  5.1 °C 30.2 °F /  -1.0 °C 29.9in /  1012.1hPa SSE 19.6mph /  31.5km/h 19.6mph /  31.5km/h 65% 0in /  0.0mm 403.0 W/m2 CLR
13:55 41.4 °F /  5.2 °C 30.6 °F /  -0.8 °C 29.9in /  1011.7hPa SSE 15mph /  24.1km/h 15mph /  24.1km/h 65% 0in /  0.0mm 350.0 W/m2 CLR
14:00 41.4 °F /  5.2 °C 30.6 °F /  -0.8 °C 29.9in /  1012.1hPa SE 19.6mph /  31.5km/h 19.6mph /  31.5km/h 65% 0in /  0.0mm 272.0 W/m2 CLR
14:05 41.4 °F /  5.2 °C 30.6 °F /  -0.8 °C 29.9in /  1012.1hPa SE 18.4mph /  29.6km/h 18.4mph /  29.6km/h 65% 0in /  0.0mm 329.0 W/m2 CLR
14:10 41.7 °F /  5.4 °C 30.9 °F /  -0.6 °C 29.9in /  1011.7hPa SSE 15mph /  24.1km/h 15mph /  24.1km/h 65% 0in /  0.0mm 418.0 W/m2 CLR
14:11 42.1 °F /  5.6 °C 30.7 °F /  -0.7 °C 29.9in /  1011.7hPa SSE 17mph /  27.4km/h 17mph /  27.4km/h 64% 0in /  0.0mm 374.0 W/m2 CLR
14:16 42.3 °F /  5.7 °C 30.9 °F /  -0.6 °C 29.9in /  1011.7hPa SSE 18.4mph /  29.6km/h 18.4mph /  29.6km/h 64% 0in /  0.0mm 348.0 W/m2 CLR
14:21 42.1 °F /  5.6 °C 30.4 °F /  -0.9 °C 29.9in /  1011.7hPa SSE 19.6mph /  31.5km/h 19.6mph /  31.5km/h 63% 0in /  0.0mm 313.0 W/m2 CLR
14:22 42.1 °F /  5.6 °C 30.4 °F /  -0.9 °C 29.9in /  1011.7hPa SSE 21mph /  33.8km/h 21mph /  33.8km/h 63% 0in /  0.0mm 316.0 W/m2 CLR
14:27 42.1 °F /  5.6 °C 30.7 °F /  -0.7 °C 29.9in /  1011.4hPa SSE 19.6mph /  31.5km/h 19.6mph /  31.5km/h 64% 0in /  0.0mm 320.0 W/m2 CLR
14:32 41.9 °F /  5.5 °C 30.2 °F /  -1.0 °C 29.9in /  1011.4hPa SE 20.7mph /  33.3km/h 20.7mph /  33.3km/h 63% 0in /  0.0mm 272.0 W/m2 CLR
14:37 41.7 °F /  5.4 °C 30.6 °F /  -0.8 °C 29.9in /  1011.7hPa SSE 19.6mph /  31.5km/h 19.6mph /  31.5km/h 64% 0in /  0.0mm 327.0 W/m2 CLR
14:42 41.9 °F /  5.5 °C 30.6 °F /  -0.8 °C 29.9in /  1011.7hPa SE 16.1mph /  25.9km/h 16.1mph /  25.9km/h 64% 0in /  0.0mm 311.0 W/m2 CLR
14:47 41.7 °F /  5.4 °C 30.6 °F /  -0.8 °C 29.9in /  1011.7hPa SE 19.6mph /  31.5km/h 19.6mph /  31.5km/h 64% 0in /  0.0mm 309.0 W/m2 CLR
14:52 41.7 °F /  5.4 °C 30 °F /  -1.1 °C 29.9in /  1011.7hPa SSE 26.5mph /  42.6km/h 26.5mph /  42.6km/h 63% 0in /  0.0mm 323.0 W/m2 CLR
14:57 41.9 °F /  5.5 °C 30.6 °F /  -0.8 °C 29.9in /  1011.7hPa SSE 17.3mph /  27.8km/h 17.3mph /  27.8km/h 64% 0in /  0.0mm 334.0 W/m2 CLR
15:02 42.1 °F /  5.6 °C 30.4 °F /  -0.9 °C 29.9in /  1011.4hPa SSE 19.6mph /  31.5km/h 19.6mph /  31.5km/h 63% 0in /  0.0mm 329.0 W/m2 CLR
15:07 42.1 °F /  5.6 °C 30.4 °F /  -0.9 °C 29.9in /  1011.4hPa SSE 25.3mph /  40.7km/h 25.3mph /  40.7km/h 63% 0in /  0.0mm 301.0 W/m2 CLR
15:12 42.1 °F /  5.6 °C 30.7 °F /  -0.7 °C 29.9in /  1011.4hPa SE 16.1mph /  25.9km/h 16.1mph /  25.9km/h 64% 0in /  0.0mm 197.0 W/m2 CLR
15:17 41.9 °F /  5.5 °C 30.2 °F /  -1.0 °C 29.9in /  1011.4hPa SSE 21.9mph /  35.2km/h 21.9mph /  35.2km/h 63% 0in /  0.0mm 253.0 W/m2 FEW
15:22 42.1 °F /  5.6 °C 31.1 °F /  -0.5 °C 29.9in /  1011.7hPa SSE 18.4mph /  29.6km/h 18.4mph /  29.6km/h 65% 0in /  0.0mm 288.0 W/m2 FEW
15:27 42.1 °F /  5.6 °C 30.7 °F /  -0.7 °C 29.9in /  1011.7hPa SSE 19.6mph /  31.5km/h 19.6mph /  31.5km/h 64% 0in /  0.0mm 285.0 W/m2 CLR
15:32 42.3 °F /  5.7 °C 30.9 °F /  -0.6 °C 29.9in /  1011.7hPa SE 17mph /  27.4km/h 17mph /  27.4km/h 64% 0in /  0.0mm 258.0 W/m2 CLR
15:37 42.1 °F /  5.6 °C 31.3 °F /  -0.4 °C 29.9in /  1011.7hPa SE 17.3mph /  27.8km/h 17.3mph /  27.8km/h 65% 0in /  0.0mm 141.0 W/m2 FEW
15:42 41.7 °F /  5.4 °C 30.6 °F /  -0.8 °C 29.9in /  1011.7hPa SSE 19.6mph /  31.5km/h 19.6mph /  31.5km/h 64% 0in /  0.0mm 102.0 W/m2 SCT
15:47 41.5 °F /  5.3 °C 30.9 °F /  -0.6 °C 29.9in /  1011.7hPa SE 15mph /  24.1km/h 15mph /  24.1km/h 66% 0in /  0.0mm 97.0 W/m2 BKN
15:52 41.2 °F /  5.1 °C 30.6 °F /  -0.8 °C 29.9in /  1011.7hPa SE 12.7mph /  20.4km/h 12.7mph /  20.4km/h 66% 0in /  0.0mm 100.0 W/m2 BKN
15:57 41 °F /  5.0 °C 30.9 °F /  -0.6 °C 29.9in /  1011.7hPa SSE 15mph /  24.1km/h 15mph /  24.1km/h 67% 0in /  0.0mm 123.0 W/m2 BKN
16:02 41.2 °F /  5.1 °C 30.6 °F /  -0.8 °C 29.9in /  1011.7hPa SSE 20.7mph /  33.3km/h 20.7mph /  33.3km/h 66% 0in /  0.0mm 146.0 W/m2 BKN
16:07 41 °F /  5.0 °C 30.6 °F /  -0.8 °C 29.9in /  1011.7hPa SE 13.8mph /  22.2km/h 13.8mph /  22.2km/h 66% 0in /  0.0mm 125.0 W/m2 SCT
16:12 40.8 °F /  4.9 °C 30.4 °F /  -0.9 °C 29.9in /  1011.7hPa SE 12.7mph /  20.4km/h 12.7mph /  20.4km/h 66% 0in /  0.0mm 105.0 W/m2 SCT
16:17 40.8 °F /  4.9 °C 30.4 °F /  -0.9 °C 29.9in /  1011.7hPa ESE 20.7mph /  33.3km/h 20.7mph /  33.3km/h 66% 0in /  0.0mm 83.0 W/m2 BKN
16:22 40.6 °F /  4.8 °C 30.6 °F /  -0.8 °C 29.9in /  1012.1hPa SE 12.7mph /  20.4km/h 12.7mph /  20.4km/h 67% 0in /  0.0mm 67.0 W/m2 BKN
16:27 40.6 °F /  4.8 °C 30.6 °F /  -0.8 °C 29.9in /  1012.1hPa SSE 12.7mph /  20.4km/h 12.7mph /  20.4km/h 67% 0in /  0.0mm 76.0 W/m2 BKN
16:32 40.5 °F /  4.7 °C 30.4 °F /  -0.9 °C 29.9in /  1011.7hPa ESE 18mph /  29.0km/h 18mph /  29.0km/h 67% 0in /  0.0mm 91.0 W/m2 BKN
16:37 40.6 °F /  4.8 °C 30 °F /  -1.1 °C 29.9in /  1011.7hPa SE 15mph /  24.1km/h 15mph /  24.1km/h 66% 0in /  0.0mm 93.0 W/m2 BKN
16:42 40.6 °F /  4.8 °C 30.2 °F /  -1.0 °C 29.9in /  1011.7hPa SE 16.1mph /  25.9km/h 16.1mph /  25.9km/h 66% 0in /  0.0mm 76.0 W/m2 BKN
16:47 40.6 °F /  4.8 °C 30.6 °F /  -0.8 °C 29.9in /  1012.1hPa SSE 18.4mph /  29.6km/h 18.4mph /  29.6km/h 67% 0in /  0.0mm 56.0 W/m2 BKN
16:52 40.5 °F /  4.7 °C 30.4 °F /  -0.9 °C 29.9in /  1011.7hPa SSE 15mph /  24.1km/h 15mph /  24.1km/h 67% 0in /  0.0mm 47.0 W/m2 BKN
16:57 40.3 °F /  4.6 °C 30.6 °F /  -0.8 °C 29.9in /  1011.7hPa SE 17mph /  27.4km/h 17mph /  27.4km/h 68% 0in /  0.0mm 44.0 W/m2 BKN
17:02 40.3 °F /  4.6 °C 30.6 °F /  -0.8 °C 29.9in /  1011.7hPa SSE 15mph /  24.1km/h 15mph /  24.1km/h 68% 0in /  0.0mm 42.0 W/m2 BKN
17:07 40.3 °F /  4.6 °C 30.6 °F /  -0.8 °C 29.9in /  1011.4hPa SSE 18.4mph /  29.6km/h 18.4mph /  29.6km/h 68% 0in /  0.0mm 39.0 W/m2 BKN
17:12 40.3 °F /  4.6 °C 30.6 °F /  -0.8 °C 29.9in /  1011.4hPa SE 15mph /  24.1km/h 15mph /  24.1km/h 68% 0in /  0.0mm 30.0 W/m2 BKN
17:17 39.9 °F /  4.4 °C 30.6 °F /  -0.8 °C 29.9in /  1011.7hPa SE 16.1mph /  25.9km/h 16.1mph /  25.9km/h 69% 0in /  0.0mm 21.0 W/m2 BKN
17:22 39.7 °F /  4.3 °C 30.7 °F /  -0.7 °C 29.9in /  1012.1hPa SSE 15mph /  24.1km/h 15mph /  24.1km/h 70% 0in /  0.0mm 16.0 W/m2 BKN
17:27 39.7 °F /  4.3 °C 30.7 °F /  -0.7 °C 29.9in /  1012.1hPa SSE 11.5mph /  18.5km/h 11.5mph /  18.5km/h 70% 0in /  0.0mm 11.0 W/m2 BKN
17:32 39.4 °F /  4.1 °C 30.7 °F /  -0.7 °C 29.9in /  1011.7hPa SE 12.7mph /  20.4km/h 12.7mph /  20.4km/h 71% 0in /  0.0mm 7.0 W/m2 BKN
17:37 39 °F /  3.9 °C 30.7 °F /  -0.7 °C 29.9in /  1012.1hPa SSE 12.7mph /  20.4km/h 12.7mph /  20.4km/h 72% 0in /  0.0mm 5.0 W/m2 OVC
17:42 38.8 °F /  3.8 °C 30.4 °F /  -0.9 °C 29.9in /  1011.7hPa SE 16mph /  25.7km/h 16mph /  25.7km/h 71% 0in /  0.0mm 0.0 W/m2 OVC
17:47 38.8 °F /  3.8 °C 30.6 °F /  -0.8 °C 29.9in /  1011.7hPa SSE 17.3mph /  27.8km/h 17.3mph /  27.8km/h 72% 0in /  0.0mm 0.0 W/m2 OVC
17:52 38.8 °F /  3.8 °C 30.6 °F /  -0.8 °C 29.9in /  1011.7hPa SE 15mph /  24.1km/h 15mph /  24.1km/h 72% 0in /  0.0mm 0.0 W/m2 CLR
17:57 38.8 °F /  3.8 °C 30.6 °F /  -0.8 °C 29.9in /  1011.7hPa SE 13.8mph /  22.2km/h 13.8mph /  22.2km/h 72% 0in /  0.0mm 0.0 W/m2 CLR
18:02 38.8 °F /  3.8 °C 30.6 °F /  -0.8 °C 29.9in /  1011.4hPa SSE 13.8mph /  22.2km/h 13.8mph /  22.2km/h 72% 0in /  0.0mm 0.0 W/m2 CLR
18:07 38.8 °F /  3.8 °C 30.6 °F /  -0.8 °C 29.9in /  1011.7hPa SE 15mph /  24.1km/h 15mph /  24.1km/h 72% 0in /  0.0mm 0.0 W/m2 CLR
18:12 38.8 °F /  3.8 °C 30.6 °F /  -0.8 °C 29.9in /  1011.7hPa SE 15mph /  24.1km/h 15mph /  24.1km/h 72% 0in /  0.0mm 0.0 W/m2 CLR
18:17 39 °F /  3.9 °C 30.7 °F /  -0.7 °C 29.9in /  1011.7hPa SE 13.8mph /  22.2km/h 13.8mph /  22.2km/h 72% 0in /  0.0mm 0.0 W/m2 CLR
18:22 39 °F /  3.9 °C 30.7 °F /  -0.7 °C 29.9in /  1011.7hPa SE 13.8mph /  22.2km/h 13.8mph /  22.2km/h 72% 0in /  0.0mm 0.0 W/m2 CLR
18:27 39 °F /  3.9 °C 30.7 °F /  -0.7 °C 29.9in /  1011.7hPa SE 11.5mph /  18.5km/h 11.5mph /  18.5km/h 72% 0in /  0.0mm 0.0 W/m2 CLR
18:32 38.8 °F /  3.8 °C 30.6 °F /  -0.8 °C 29.9in /  1011.7hPa SE 13mph /  20.9km/h 13mph /  20.9km/h 72% 0in /  0.0mm 0.0 W/m2 CLR
18:37 38.8 °F /  3.8 °C 30.6 °F /  -0.8 °C 29.9in /  1011.4hPa SE 14mph /  22.5km/h 14mph /  22.5km/h 72% 0in /  0.0mm 0.0 W/m2 CLR
18:42 39 °F /  3.9 °C 30.7 °F /  -0.7 °C 29.9in /  1011.4hPa SE 12.7mph /  20.4km/h 12.7mph /  20.4km/h 72% 0in /  0.0mm 0.0 W/m2 CLR
18:47 38.8 °F /  3.8 °C 30.6 °F /  -0.8 °C 29.9in /  1011.4hPa SE 11.5mph /  18.5km/h 11.5mph /  18.5km/h 72% 0in /  0.0mm 0.0 W/m2 CLR
18:52 38.8 °F /  3.8 °C 30.6 °F /  -0.8 °C 29.9in /  1011.4hPa SE 13.8mph /  22.2km/h 13.8mph /  22.2km/h 72% 0in /  0.0mm 0.0 W/m2 CLR
18:57 38.8 °F /  3.8 °C 30.9 °F /  -0.6 °C 29.9in /  1011.4hPa SSE 11.5mph /  18.5km/h 11.5mph /  18.5km/h 73% 0in /  0.0mm 0.0 W/m2 CLR
19:02 38.7 °F /  3.7 °C 30.7 °F /  -0.7 °C 29.9in /  1011.4hPa SE 15mph /  24.1km/h 15mph /  24.1km/h 73% 0in /  0.0mm 0.0 W/m2 CLR
19:07 38.7 °F /  3.7 °C 30.4 °F /  -0.9 °C 29.9in /  1011.4hPa SSE 17.3mph /  27.8km/h 17.3mph /  27.8km/h 72% 0in /  0.0mm 0.0 W/m2 CLR
19:12 38.8 °F /  3.8 °C 30.6 °F /  -0.8 °C 29.9in /  1011.1hPa SSE 15mph /  24.1km/h 15mph /  24.1km/h 72% 0in /  0.0mm 0.0 W/m2 CLR
19:17 38.8 °F /  3.8 °C 30.6 °F /  -0.8 °C 29.9in /  1011.1hPa SE 18.4mph /  29.6km/h 18.4mph /  29.6km/h 72% 0in /  0.0mm 0.0 W/m2 CLR
19:22 38.8 °F /  3.8 °C 30.6 °F /  -0.8 °C 29.9in /  1011.1hPa SE 19.6mph /  31.5km/h 19.6mph /  31.5km/h 72% 0in /  0.0mm 0.0 W/m2 CLR
19:27 39 °F /  3.9 °C 30.7 °F /  -0.7 °C 29.9in /  1011.1hPa SSE 20.7mph /  33.3km/h 20.7mph /  33.3km/h 72% 0in /  0.0mm 0.0 W/m2 CLR
19:37 39 °F /  3.9 °C 30.7 °F /  -0.7 °C 29.9in /  1011.1hPa SSE 18.4mph /  29.6km/h 18.4mph /  29.6km/h 72% 0in /  0.0mm 0.0 W/m2 CLR
19:42 39 °F /  3.9 °C 30.7 °F /  -0.7 °C 29.8in /  1010.7hPa SE 19.6mph /  31.5km/h 19.6mph /  31.5km/h 72% 0in /  0.0mm 0.0 W/m2 CLR
19:47 39.2 °F /  4.0 °C 30.6 °F /  -0.8 °C 29.8in /  1010.7hPa SE 20mph /  32.2km/h 20mph /  32.2km/h 71% 0in /  0.0mm 0.0 W/m2 CLR
19:52 39.2 °F /  4.0 °C 30.9 °F /  -0.6 °C 29.8in /  1010.7hPa SE 20mph /  32.2km/h 20mph /  32.2km/h 72% 0in /  0.0mm 0.0 W/m2 CLR
19:57 39 °F /  3.9 °C 30.7 °F /  -0.7 °C 29.8in /  1010.7hPa SE 19.6mph /  31.5km/h 19.6mph /  31.5km/h 72% 0in /  0.0mm 0.0 W/m2 CLR
20:02 39.2 °F /  4.0 °C 30.9 °F /  -0.6 °C 29.8in /  1010.7hPa SE 23mph /  37.0km/h 23mph /  37.0km/h 72% 0in /  0.0mm 0.0 W/m2 CLR
20:07 39.2 °F /  4.0 °C 30.6 °F /  -0.8 °C 29.8in /  1010.7hPa SE 20.7mph /  33.3km/h 20.7mph /  33.3km/h 71% 0in /  0.0mm 0.0 W/m2 CLR
20:12 39.2 °F /  4.0 °C 30.6 °F /  -0.8 °C 29.8in /  1010.4hPa SSE 23mph /  37.0km/h 23mph /  37.0km/h 71% 0in /  0.0mm 0.0 W/m2 CLR
20:13 39.2 °F /  4.0 °C 30.6 °F /  -0.8 °C 29.8in /  1010.7hPa SE 23mph /  37.0km/h 23mph /  37.0km/h 71% 0in /  0.0mm 0.0 W/m2 CLR
20:18 39 °F /  3.9 °C 30.7 °F /  -0.7 °C 29.8in /  1010.4hPa SE 18.4mph /  29.6km/h 18.4mph /  29.6km/h 72% 0in /  0.0mm 0.0 W/m2 CLR
20:23 39.2 °F /  4.0 °C 30.6 °F /  -0.8 °C 29.8in /  1010.7hPa SE 21mph /  33.8km/h 21mph /  33.8km/h 71% 0in /  0.0mm 0.0 W/m2 CLR
20:28 39.2 °F /  4.0 °C 30.6 °F /  -0.8 °C 29.8in /  1010.7hPa SE 20.7mph /  33.3km/h 20.7mph /  33.3km/h 71% 0in /  0.0mm 0.0 W/m2 CLR
20:33 39 °F /  3.9 °C 30.6 °F /  -0.8 °C 29.8in /  1010.7hPa SE 19mph /  30.6km/h 19mph /  30.6km/h 71% 0in /  0.0mm 0.0 W/m2 CLR
20:38 39 °F /  3.9 °C 30.6 °F /  -0.8 °C 29.8in /  1010.7hPa SSE 17.3mph /  27.8km/h 17.3mph /  27.8km/h 71% 0in /  0.0mm 0.0 W/m2 CLR
20:43 38.8 °F /  3.8 °C 30.4 °F /  -0.9 °C 29.8in /  1010.4hPa SSE 17.3mph /  27.8km/h 17.3mph /  27.8km/h 71% 0in /  0.0mm 0.0 W/m2 CLR
20:48 38.8 °F /  3.8 °C 30.6 °F /  -0.8 °C 29.8in /  1010.4hPa SSE 20mph /  32.2km/h 20mph /  32.2km/h 72% 0in /  0.0mm 0.0 W/m2 CLR
20:53 38.8 °F /  3.8 °C 30.2 °F /  -1.0 °C 29.8in /  1010.4hPa SE 19.6mph /  31.5km/h 19.6mph /  31.5km/h 71% 0in /  0.0mm 0.0 W/m2 CLR
20:58 38.8 °F /  3.8 °C 29.8 °F /  -1.2 °C 29.8in /  1010.4hPa SE 20.7mph /  33.3km/h 20.7mph /  33.3km/h 70% 0in /  0.0mm 0.0 W/m2 CLR
21:03 38.8 °F /  3.8 °C 29.8 °F /  -1.2 °C 29.8in /  1010.0hPa SSE 24.2mph /  38.9km/h 24.2mph /  38.9km/h 70% 0in /  0.0mm 0.0 W/m2 CLR
21:08 38.8 °F /  3.8 °C 29.8 °F /  -1.2 °C 29.8in /  1010.0hPa SE 19.6mph /  31.5km/h 19.6mph /  31.5km/h 70% 0in /  0.0mm 0.0 W/m2 CLR
21:13 38.8 °F /  3.8 °C 29.8 °F /  -1.2 °C 29.8in /  1010.4hPa ESE 19.6mph /  31.5km/h 19.6mph /  31.5km/h 70% 0in /  0.0mm 0.0 W/m2 CLR
21:18 38.8 °F /  3.8 °C 29.8 °F /  -1.2 °C 29.8in /  1010.0hPa SSE 18.4mph /  29.6km/h 18.4mph /  29.6km/h 70% 0in /  0.0mm 0.0 W/m2 CLR
21:23 38.8 °F /  3.8 °C 29.8 °F /  -1.2 °C 29.8in /  1010.0hPa SSE 19.6mph /  31.5km/h 19.6mph /  31.5km/h 70% 0in /  0.0mm 0.0 W/m2 CLR
21:28 38.7 °F /  3.7 °C 29.8 °F /  -1.2 °C 29.8in /  1010.0hPa SSE 21.9mph /  35.2km/h 21.9mph /  35.2km/h 70% 0in /  0.0mm 0.0 W/m2 CLR
21:33 38.7 °F /  3.7 °C 30 °F /  -1.1 °C 29.8in /  1010.0hPa SSE 19.6mph /  31.5km/h 19.6mph /  31.5km/h 71% 0in /  0.0mm 0.0 W/m2 CLR
21:34 38.7 °F /  3.7 °C 30 °F /  -1.1 °C 29.8in /  1010.0hPa SE 17.3mph /  27.8km/h 17.3mph /  27.8km/h 71% 0in /  0.0mm 0.0 W/m2 CLR
21:39 38.7 °F /  3.7 °C 30 °F /  -1.1 °C 29.8in /  1009.7hPa SSE 18mph /  29.0km/h 18mph /  29.0km/h 71% 0in /  0.0mm 0.0 W/m2 CLR
21:44 38.7 °F /  3.7 °C 29.8 °F /  -1.2 °C 29.8in /  1009.7hPa ESE 24.2mph /  38.9km/h 24.2mph /  38.9km/h 70% 0in /  0.0mm 0.0 W/m2 CLR
21:49 38.7 °F /  3.7 °C 30 °F /  -1.1 °C 29.8in /  1009.7hPa SE 21.9mph /  35.2km/h 21.9mph /  35.2km/h 71% 0in /  0.0mm 0.0 W/m2 CLR
21:54 38.7 °F /  3.7 °C 30 °F /  -1.1 °C 29.8in /  1009.4hPa SE 21.9mph /  35.2km/h 21.9mph /  35.2km/h 71% 0in /  0.0mm 0.0 W/m2 CLR
22:00 38.7 °F /  3.7 °C 30 °F /  -1.1 °C 29.8in /  1009.4hPa SSE 20.7mph /  33.3km/h 20.7mph /  33.3km/h 71% 0in /  0.0mm 0.0 W/m2 CLR
22:05 38.7 °F /  3.7 °C 30 °F /  -1.1 °C 29.8in /  1009.4hPa SSE 24.2mph /  38.9km/h 24.2mph /  38.9km/h 71% 0in /  0.0mm 0.0 W/m2 CLR
22:10 38.7 °F /  3.7 °C 29.8 °F /  -1.2 °C 29.8in /  1009.4hPa SE 21.9mph /  35.2km/h 21.9mph /  35.2km/h 70% 0in /  0.0mm 0.0 W/m2 CLR
22:14 38.7 °F /  3.7 °C 30 °F /  -1.1 °C 29.8in /  1009.0hPa SE 21.9mph /  35.2km/h 21.9mph /  35.2km/h 71% 0in /  0.0mm 0.0 W/m2 CLR
22:19 38.8 °F /  3.8 °C 29.8 °F /  -1.2 °C 29.8in /  1009.4hPa SSE 23mph /  37.0km/h 23mph /  37.0km/h 70% 0in /  0.0mm 0.0 W/m2 CLR
22:24 38.8 °F /  3.8 °C 29.8 °F /  -1.2 °C 29.8in /  1009.0hPa SE 19.6mph /  31.5km/h 19.6mph /  31.5km/h 70% 0in /  0.0mm 0.0 W/m2 CLR
22:29 38.8 °F /  3.8 °C 30.2 °F /  -1.0 °C 29.8in /  1009.0hPa SE 23mph /  37.0km/h 23mph /  37.0km/h 71% 0in /  0.0mm 0.0 W/m2 CLR
22:34 38.8 °F /  3.8 °C 29.8 °F /  -1.2 °C 29.8in /  1009.0hPa SE 21.9mph /  35.2km/h 21.9mph /  35.2km/h 70% 0in /  0.0mm 0.0 W/m2 CLR
22:39 38.8 °F /  3.8 °C 29.8 °F /  -1.2 °C 29.8in /  1009.4hPa SE 24.2mph /  38.9km/h 24.2mph /  38.9km/h 70% 0in /  0.0mm 0.0 W/m2 CLR
22:44 38.8 °F /  3.8 °C 29.8 °F /  -1.2 °C 29.8in /  1009.4hPa SE 23mph /  37.0km/h 23mph /  37.0km/h 70% 0in /  0.0mm 0.0 W/m2 CLR
22:49 38.8 °F /  3.8 °C 30.2 °F /  -1.0 °C 29.8in /  1009.4hPa SE 20mph /  32.2km/h 20mph /  32.2km/h 71% 0in /  0.0mm 0.0 W/m2 CLR
22:54 38.8 °F /  3.8 °C 30.2 °F /  -1.0 °C 29.8in /  1009.0hPa SSE 19.6mph /  31.5km/h 19.6mph /  31.5km/h 71% 0in /  0.0mm 0.0 W/m2 CLR
22:59 38.8 °F /  3.8 °C 30.2 °F /  -1.0 °C 29.8in /  1009.4hPa SE 21.9mph /  35.2km/h 21.9mph /  35.2km/h 71% 0in /  0.0mm 0.0 W/m2 CLR
23:04 38.7 °F /  3.7 °C 30 °F /  -1.1 °C 29.8in /  1009.0hPa SSE 20.7mph /  33.3km/h 20.7mph /  33.3km/h 71% 0in /  0.0mm 0.0 W/m2 CLR
23:10 38.7 °F /  3.7 °C 30 °F /  -1.1 °C 29.8in /  1009.0hPa SE 21.9mph /  35.2km/h 21.9mph /  35.2km/h 71% 0in /  0.0mm 0.0 W/m2 CLR
23:14 38.7 °F /  3.7 °C 30 °F /  -1.1 °C 29.8in /  1009.0hPa SE 20.7mph /  33.3km/h 20.7mph /  33.3km/h 71% 0in /  0.0mm 0.0 W/m2 CLR
23:19 38.7 °F /  3.7 °C 30 °F /  -1.1 °C 29.8in /  1009.0hPa SSE 19.6mph /  31.5km/h 19.6mph /  31.5km/h 71% 0in /  0.0mm 0.0 W/m2 CLR
23:24 38.7 °F /  3.7 °C 30 °F /  -1.1 °C 29.8in /  1009.0hPa SE 17.3mph /  27.8km/h 17.3mph /  27.8km/h 71% 0in /  0.0mm 0.0 W/m2 CLR
23:29 38.7 °F /  3.7 °C 30 °F /  -1.1 °C 29.8in /  1009.0hPa SE 21mph /  33.8km/h 21mph /  33.8km/h 71% 0in /  0.0mm 0.0 W/m2 CLR
23:34 38.8 °F /  3.8 °C 29.8 °F /  -1.2 °C 29.8in /  1008.7hPa SE 20.7mph /  33.3km/h 20.7mph /  33.3km/h 70% 0in /  0.0mm 0.0 W/m2 CLR
23:39 38.7 °F /  3.7 °C 30 °F /  -1.1 °C 29.8in /  1008.7hPa SE 21mph /  33.8km/h 21mph /  33.8km/h 71% 0in /  0.0mm 0.0 W/m2 CLR
23:44 38.7 °F /  3.7 °C 30 °F /  -1.1 °C 29.8in /  1008.7hPa SE 19.6mph /  31.5km/h 19.6mph /  31.5km/h 71% 0in /  0.0mm 0.0 W/m2 CLR
23:49 38.7 °F /  3.7 °C 30 °F /  -1.1 °C 29.8in /  1008.7hPa SE 21.9mph /  35.2km/h 21.9mph /  35.2km/h 71% 0in /  0.0mm 0.0 W/m2 CLR
23:54 38.7 °F /  3.7 °C 29.8 °F /  -1.2 °C 29.8in /  1008.4hPa SSE 19.6mph /  31.5km/h 19.6mph /  31.5km/h 70% 0in /  0.0mm 0.0 W/m2 CLR
23:59 38.7 °F /  3.7 °C 29.8 °F /  -1.2 °C 29.8in /  1008.4hPa SE 18.4mph /  29.6km/h 18.4mph /  29.6km/h 70% 0in /  0.0mm 0.0 W/m2 CLR
Juneau County Weather